Time;durP1;ratioP1;P1;durP2;ratioP2;P2;SDS_P1;SDS_P2;PMS_P1;PMS_P2;Temp;Humidity;BMP_temperature;BMP_pressure;BME280_temperature;BME280_humidity;BME280_pressure;Samples;Min_cycle;Max_cycle;Signal;HPM_P1;HPM_P2
2022/02/27 00:00:52;;;;;;;5.43;2.63;;;7.40;99.90;;;;;;5006594;28;20022;-76
2022/02/27 00:03:18;;;;;;;4.25;1.75;;;7.40;99.90;;;;;;5023185;28;20029;-75
2022/02/27 00:05:43;;;;;;;3.72;1.98;;;7.40;99.90;;;;;;5027807;28;20057;-74
2022/02/27 00:08:09;;;;;;;6.43;1.58;;;7.40;99.90;;;;;;5022689;28;20544;-75
2022/02/27 00:10:35;;;;;;;4.25;2.35;;;7.40;99.90;;;;;;5006533;28;20407;-75
2022/02/27 00:13:00;;;;;;;4.10;3.10;;;7.40;99.90;;;;;;5025816;28;20030;-75
2022/02/27 00:15:26;;;;;;;2.17;1.98;;;7.40;99.90;;;;;;5023152;28;20025;-75
2022/02/27 00:17:52;;;;;;;5.65;2.03;;;7.30;99.90;;;;;;5026946;28;20083;-75
2022/02/27 00:20:18;;;;;;;6.88;1.60;;;7.30;99.90;;;;;;5025672;28;20484;-75
2022/02/27 00:22:43;;;;;;;5.82;2.65;;;7.30;99.90;;;;;;5005613;28;20055;-74
2022/02/27 00:25:10;;;;;;;2.80;1.83;;;7.30;99.90;;;;;;5024041;28;20120;-75
2022/02/27 00:27:37;;;;;;;3.13;1.88;;;7.30;99.90;;;;;;5028215;28;20040;-75
2022/02/27 00:30:08;;;;;;;4.10;1.70;;;7.30;99.90;;;;;;5008185;28;20029;-75
2022/02/27 00:32:34;;;;;;;8.73;2.03;;;7.30;99.90;;;;;;5006489;28;20553;-75
2022/02/27 00:35:00;;;;;;;1.40;1.30;;;7.20;99.90;;;;;;5009212;28;20112;-75
2022/02/27 00:37:25;;;;;;;4.40;3.03;;;7.30;99.90;;;;;;5005037;28;20456;-75
2022/02/27 00:39:51;;;;;;;9.32;2.38;;;7.30;99.90;;;;;;5025637;28;20013;-74
2022/02/27 00:42:17;;;;;;;13.35;2.28;;;7.20;99.90;;;;;;5022768;28;20033;-75
2022/02/27 00:44:43;;;;;;;2.65;2.00;;;7.30;99.90;;;;;;5022407;28;20030;-74
2022/02/27 00:47:08;;;;;;;2.75;1.98;;;7.20;99.90;;;;;;5027419;28;20022;-74
2022/02/27 00:49:34;;;;;;;3.42;2.10;;;7.20;99.90;;;;;;5011580;28;20395;-74
2022/02/27 00:52:00;;;;;;;1.98;1.63;;;7.20;99.90;;;;;;5025100;28;20041;-74
2022/02/27 00:54:28;;;;;;;2.45;1.73;;;7.20;99.90;;;;;;5024794;28;20021;-75
2022/02/27 00:56:54;;;;;;;3.22;1.55;;;7.20;99.90;;;;;;5028056;28;20481;-74
2022/02/27 00:59:20;;;;;;;2.38;1.83;;;7.20;99.90;;;;;;5008118;28;20040;-75
2022/02/27 01:01:46;;;;;;;3.20;1.25;;;7.20;99.90;;;;;;5022718;28;20029;-75
2022/02/27 01:04:11;;;;;;;2.60;1.90;;;7.20;99.90;;;;;;4998232;28;20036;-75
2022/02/27 01:06:37;;;;;;;3.53;1.77;;;7.30;99.90;;;;;;5009937;28;20031;-75
2022/02/27 01:09:04;;;;;;;1.42;1.33;;;7.20;99.90;;;;;;5024614;28;20053;-75
2022/02/27 01:11:31;;;;;;;4.50;2.30;;;7.20;99.90;;;;;;5028892;28;20028;-74
2022/02/27 01:13:58;;;;;;;2.15;1.95;;;7.20;99.90;;;;;;5029537;28;20499;-74
2022/02/27 01:16:24;;;;;;;3.70;1.48;;;7.20;99.90;;;;;;5006451;28;20029;-75
2022/02/27 01:18:50;;;;;;;1.38;1.10;;;7.20;99.90;;;;;;5029320;28;20421;-75
2022/02/27 01:21:16;;;;;;;2.83;1.40;;;7.20;99.90;;;;;;5028489;28;20392;-75
2022/02/27 01:23:46;;;;;;;6.22;2.03;;;7.30;99.90;;;;;;5010362;28;20032;-75
2022/02/27 01:26:13;;;;;;;1.85;1.65;;;7.20;99.90;;;;;;5029446;28;20032;-75
2022/02/27 01:28:38;;;;;;;2.63;1.85;;;7.30;99.90;;;;;;5026511;28;20036;-75
2022/02/27 01:31:07;;;;;;;2.53;1.55;;;7.20;99.90;;;;;;5028777;28;20034;-76
2022/02/27 01:33:33;;;;;;;2.15;1.98;;;7.20;99.90;;;;;;5027447;28;20122;-75
2022/02/27 01:35:59;;;;;;;3.72;1.65;;;7.20;99.90;;;;;;5028684;28;20633;-74
2022/02/27 01:38:25;;;;;;;4.50;1.52;;;7.20;99.90;;;;;;5025299;28;20057;-76
2022/02/27 01:40:51;;;;;;;8.88;2.10;;;7.20;99.90;;;;;;5026813;28;20474;-75
2022/02/27 01:43:16;;;;;;;2.40;1.85;;;7.20;99.90;;;;;;5026071;28;20057;-75
2022/02/27 01:45:42;;;;;;;4.22;1.48;;;7.20;99.90;;;;;;5026518;28;20120;-74
2022/02/27 01:48:08;;;;;;;3.95;2.03;;;7.20;99.90;;;;;;5019589;28;20056;-75
2022/02/27 01:50:34;;;;;;;2.15;1.45;;;7.20;99.90;;;;;;5004658;28;20060;-75
2022/02/27 01:52:59;;;;;;;2.10;1.58;;;7.20;99.90;;;;;;5025170;28;20025;-75
2022/02/27 01:55:26;;;;;;;2.08;1.65;;;7.20;99.90;;;;;;5024886;28;20032;-74
2022/02/27 01:57:52;;;;;;;7.13;2.72;;;7.20;99.90;;;;;;5018070;28;20381;-76
2022/02/27 02:00:17;;;;;;;2.63;1.90;;;7.20;99.90;;;;;;5000979;28;20026;-75
2022/02/27 02:02:44;;;;;;;2.13;1.30;;;7.20;99.90;;;;;;5006807;28;20030;-76
2022/02/27 02:05:10;;;;;;;2.67;1.92;;;7.20;99.90;;;;;;5012319;28;20044;-75
2022/02/27 02:07:36;;;;;;;2.35;2.15;;;7.20;99.90;;;;;;5025239;28;20025;-75
2022/02/27 02:10:03;;;;;;;5.72;2.40;;;7.10;99.90;;;;;;5024337;28;20022;-75
2022/02/27 02:12:29;;;;;;;2.65;2.45;;;7.10;99.90;;;;;;5024079;28;20387;-75
2022/02/27 02:14:55;;;;;;;3.58;2.15;;;7.20;99.90;;;;;;5018047;28;20025;-73
2022/02/27 02:17:21;;;;;;;5.22;1.98;;;7.20;99.90;;;;;;5010279;28;20091;-73
2022/02/27 02:19:50;;;;;;;5.00;2.47;;;7.20;99.90;;;;;;5022165;28;20022;-75
2022/02/27 02:22:16;;;;;;;2.20;1.95;;;7.20;99.90;;;;;;5028311;28;20030;-76
2022/02/27 02:24:42;;;;;;;4.63;1.58;;;7.20;99.90;;;;;;5012270;28;20033;-75
2022/02/27 02:27:07;;;;;;;5.10;2.33;;;7.10;99.90;;;;;;5026743;28;20037;-75
2022/02/27 02:29:33;;;;;;;8.95;2.95;;;7.10;99.90;;;;;;5023368;28;20033;-76
2022/02/27 02:31:59;;;;;;;5.35;2.22;;;7.10;99.90;;;;;;5021192;28;20388;-74
2022/02/27 02:34:27;;;;;;;3.78;2.67;;;7.10;99.90;;;;;;5023115;28;20039;-75
2022/02/27 02:36:54;;;;;;;3.03;1.67;;;7.10;99.90;;;;;;5026214;28;20084;-74
2022/02/27 02:39:21;;;;;;;2.22;1.98;;;7.10;99.90;;;;;;5008289;28;20163;-75
2022/02/27 02:41:46;;;;;;;2.10;2.00;;;7.10;99.90;;;;;;5022400;28;20112;-75
2022/02/27 02:44:13;;;;;;;2.15;1.70;;;7.10;99.90;;;;;;5023018;28;20113;-75
2022/02/27 02:46:40;;;;;;;3.45;2.25;;;7.10;99.90;;;;;;5008259;28;20082;-75
2022/02/27 02:49:07;;;;;;;2.05;1.85;;;7.10;99.90;;;;;;5005611;28;20033;-75
2022/02/27 02:51:34;;;;;;;2.97;1.77;;;7.10;99.90;;;;;;5026105;28;20021;-75
2022/02/27 02:54:04;;;;;;;2.70;2.45;;;7.00;99.90;;;;;;5027685;28;20040;-75
2022/02/27 02:56:29;;;;;;;3.80;2.58;;;7.00;99.90;;;;;;5026342;28;20419;-75
2022/02/27 02:58:55;;;;;;;3.03;2.63;;;7.00;99.90;;;;;;5026862;28;20025;-76
2022/02/27 03:01:24;;;;;;;4.35;2.38;;;7.00;99.90;;;;;;5027319;28;20124;-76
2022/02/27 03:03:51;;;;;;;2.92;2.05;;;7.00;99.90;;;;;;5024446;28;20037;-75
2022/02/27 03:06:17;;;;;;;3.80;2.78;;;7.00;99.90;;;;;;5024537;28;20095;-75
2022/02/27 03:08:46;;;;;;;3.85;2.63;;;7.00;99.90;;;;;;5019149;28;20068;-75
2022/02/27 03:11:13;;;;;;;2.78;2.42;;;7.00;99.90;;;;;;5024301;28;20403;-74
2022/02/27 03:13:39;;;;;;;3.38;2.95;;;7.00;99.90;;;;;;5024890;28;20048;-75
2022/02/27 03:16:06;;;;;;;4.53;2.50;;;7.00;99.90;;;;;;5028764;28;20048;-75
2022/02/27 03:18:32;;;;;;;6.38;2.70;;;6.90;99.90;;;;;;5025832;28;20033;-74
2022/02/27 03:21:03;;;;;;;4.10;2.92;;;6.90;99.90;;;;;;5006207;28;20128;-76
2022/02/27 03:23:30;;;;;;;2.78;2.47;;;6.90;99.90;;;;;;5008386;28;20021;-74
2022/02/27 03:25:57;;;;;;;7.00;2.83;;;6.90;99.90;;;;;;5023123;28;20030;-74
2022/02/27 03:28:23;;;;;;;3.00;2.53;;;6.90;99.90;;;;;;5024429;28;20112;-75
2022/02/27 03:30:48;;;;;;;3.38;2.22;;;6.90;99.90;;;;;;5021637;28;20059;-75
2022/02/27 03:33:14;;;;;;;4.28;2.55;;;6.80;99.90;;;;;;5007919;28;20175;-74
2022/02/27 03:35:41;;;;;;;5.15;3.67;;;6.80;99.90;;;;;;5022805;28;20021;-75
2022/02/27 03:38:07;;;;;;;4.55;2.47;;;6.90;99.90;;;;;;5025501;28;20026;-74
2022/02/27 03:40:33;;;;;;;5.57;3.33;;;6.80;99.90;;;;;;5026755;28;20025;-76
2022/02/27 03:42:59;;;;;;;5.85;2.45;;;6.80;99.90;;;;;;5025398;28;20029;-76
2022/02/27 03:45:25;;;;;;;5.18;2.40;;;6.80;99.90;;;;;;5029540;28;20488;-76
2022/02/27 03:47:51;;;;;;;5.05;2.92;;;6.90;99.90;;;;;;5027975;28;20036;-76
2022/02/27 03:50:17;;;;;;;4.03;2.38;;;6.80;99.90;;;;;;5024031;28;20107;-75
2022/02/27 03:52:44;;;;;;;3.05;2.67;;;6.80;99.90;;;;;;5030084;28;20021;-75
2022/02/27 03:55:13;;;;;;;2.88;2.45;;;6.80;99.90;;;;;;5023494;28;20447;-75
2022/02/27 03:57:38;;;;;;;4.45;2.88;;;6.80;99.90;;;;;;5008190;28;20585;-74
2022/02/27 04:00:08;;;;;;;6.05;3.08;;;6.90;99.90;;;;;;5003716;28;20033;-75
2022/02/27 04:02:33;;;;;;;2.63;2.42;;;6.90;99.90;;;;;;5021853;28;20037;-75
2022/02/27 04:04:59;;;;;;;6.13;3.25;;;6.90;99.90;;;;;;5006061;28;20467;-75
2022/02/27 04:07:25;;;;;;;5.47;2.67;;;6.90;99.90;;;;;;5027725;28;20025;-74
2022/02/27 04:09:51;;;;;;;3.63;2.85;;;6.80;99.90;;;;;;5011030;28;20060;-75
2022/02/27 04:12:16;;;;;;;3.85;2.88;;;6.80;99.90;;;;;;5002811;28;20060;-74
2022/02/27 04:14:42;;;;;;;4.25;2.47;;;6.80;99.90;;;;;;5004861;28;20017;-76
2022/02/27 04:17:08;;;;;;;4.68;3.80;;;6.80;99.90;;;;;;5028899;28;20025;-77
2022/02/27 04:19:34;;;;;;;4.88;2.60;;;6.80;99.90;;;;;;5010134;28;20030;-75
2022/02/27 04:21:59;;;;;;;6.82;2.80;;;6.80;99.90;;;;;;5023250;28;20087;-76
2022/02/27 04:24:25;;;;;;;3.40;2.85;;;6.80;99.90;;;;;;5026830;28;20072;-75
2022/02/27 04:26:51;;;;;;;3.95;3.35;;;6.80;99.90;;;;;;5027943;28;20032;-75
2022/02/27 04:29:17;;;;;;;4.10;2.78;;;6.80;99.90;;;;;;5024164;28;20061;-75
2022/02/27 04:31:44;;;;;;;4.30;3.30;;;6.80;99.90;;;;;;5022962;28;20083;-75
2022/02/27 04:34:10;;;;;;;5.28;2.95;;;6.70;99.90;;;;;;5024487;28;20025;-75
2022/02/27 04:36:36;;;;;;;2.58;2.38;;;6.80;99.90;;;;;;5026839;28;20108;-76
2022/02/27 04:39:02;;;;;;;5.13;4.05;;;6.70;99.90;;;;;;5005049;28;20112;-75
2022/02/27 04:41:28;;;;;;;4.03;3.40;;;6.70;99.90;;;;;;5028832;28;20029;-75
2022/02/27 04:43:54;;;;;;;4.57;2.78;;;6.70;99.90;;;;;;5029540;28;20025;-75
2022/02/27 04:46:19;;;;;;;6.15;2.67;;;6.70;99.90;;;;;;5021984;28;20172;-76
2022/02/27 04:48:52;;;;;;;5.57;3.20;;;6.70;99.90;;;;;;5009903;28;20033;-76
2022/02/27 04:51:17;;;;;;;;;;;6.80;99.90;;;;;;5008563;28;20403;-73
2022/02/27 04:53:45;;;;;;;5.00;2.83;;;6.80;99.90;;;;;;5024688;28;19969;-75
2022/02/27 04:56:12;;;;;;;4.00;3.55;;;6.80;99.90;;;;;;5024255;28;20056;-75
2022/02/27 04:58:37;;;;;;;6.63;3.53;;;6.70;99.90;;;;;;5011301;28;20460;-75
2022/02/27 05:01:03;;;;;;;5.07;3.65;;;6.80;99.90;;;;;;5010685;28;20085;-76
2022/02/27 05:03:29;;;;;;;5.43;4.25;;;6.70;99.90;;;;;;5020389;28;20404;-74
2022/02/27 05:05:55;;;;;;;4.30;3.45;;;6.70;99.90;;;;;;5026379;28;20028;-74
2022/02/27 05:08:21;;;;;;;5.50;4.78;;;6.80;99.90;;;;;;5029237;28;20065;-75
2022/02/27 05:10:46;;;;;;;7.85;3.97;;;6.70;99.90;;;;;;5010690;28;20029;-75
2022/02/27 05:13:12;;;;;;;4.93;4.22;;;6.70;99.90;;;;;;5009270;28;20033;-76
2022/02/27 05:15:38;;;;;;;6.70;4.57;;;6.70;99.90;;;;;;5010842;28;20021;-75
2022/02/27 05:18:04;;;;;;;4.78;3.13;;;6.70;99.90;;;;;;5023990;28;20383;-75
2022/02/27 05:20:30;;;;;;;5.28;3.70;;;6.70;99.90;;;;;;5021929;28;20102;-74
2022/02/27 05:22:55;;;;;;;4.85;3.63;;;6.70;99.90;;;;;;5024925;28;20369;-76
2022/02/27 05:25:22;;;;;;;6.60;4.50;;;6.70;99.90;;;;;;5022568;28;20960;-75
2022/02/27 05:27:51;;;;;;;8.95;4.25;;;6.60;99.90;;;;;;5005087;28;20343;-75
2022/02/27 05:30:21;;;;;;;3.60;3.10;;;6.60;99.90;;;;;;5022020;28;20029;-75
2022/02/27 05:32:48;;;;;;;10.25;4.72;;;6.60;99.90;;;;;;5006300;28;20093;-75
2022/02/27 05:35:14;;;;;;;6.57;3.75;;;6.60;99.90;;;;;;5003170;28;20532;-76
2022/02/27 05:37:40;;;;;;;9.57;4.45;;;6.50;99.90;;;;;;5022438;28;20640;-76
2022/02/27 05:40:07;;;;;;;7.38;4.50;;;6.50;99.90;;;;;;5021893;28;20038;-75
2022/02/27 05:42:33;;;;;;;7.57;4.53;;;6.50;99.90;;;;;;5007434;28;20190;-74
2022/02/27 05:44:59;;;;;;;11.43;5.18;;;6.60;99.90;;;;;;5023236;28;20060;-74
2022/02/27 05:47:25;;;;;;;8.38;5.18;;;6.50;99.90;;;;;;5024514;28;20463;-74
2022/02/27 05:49:51;;;;;;;15.80;6.95;;;6.50;99.90;;;;;;5026143;28;20091;-75
2022/02/27 05:52:17;;;;;;;6.63;5.60;;;6.60;99.90;;;;;;5022859;28;20025;-75
2022/02/27 05:54:43;;;;;;;6.35;5.13;;;6.50;99.90;;;;;;5022558;28;20021;-76
2022/02/27 05:57:09;;;;;;;6.70;5.60;;;6.50;99.90;;;;;;5021808;28;20556;-75
2022/02/27 05:59:35;;;;;;;6.40;5.45;;;6.50;99.90;;;;;;5022326;28;20067;-73
2022/02/27 06:02:00;;;;;;;6.07;5.45;;;6.50;99.90;;;;;;5023787;28;20475;-76
2022/02/27 06:04:32;;;;;;;8.80;6.85;;;6.50;99.90;;;;;;5022354;28;20033;-77
2022/02/27 06:07:00;;;;;;;9.77;5.78;;;6.40;99.90;;;;;;5021099;28;20060;-76
2022/02/27 06:09:34;;;;;;;7.25;5.90;;;6.40;99.90;;;;;;5020793;28;20138;-76
2022/02/27 06:12:00;;;;;;;9.57;6.53;;;6.30;99.90;;;;;;5024262;28;20029;-75
2022/02/27 06:14:26;;;;;;;7.93;6.18;;;6.30;99.90;;;;;;5023494;28;20028;-75
2022/02/27 06:16:52;;;;;;;10.98;7.43;;;6.40;99.90;;;;;;5010608;28;20018;-74
2022/02/27 06:19:18;;;;;;;6.30;4.47;;;6.40;99.90;;;;;;5028184;28;20021;-75
2022/02/27 06:21:44;;;;;;;10.90;6.53;;;6.30;99.90;;;;;;5013880;28;20406;-75
2022/02/27 06:24:09;;;;;;;11.02;6.35;;;6.30;99.90;;;;;;5027738;28;20038;-74
2022/02/27 06:26:38;;;;;;;11.40;5.85;;;6.30;99.90;;;;;;5026527;28;20115;-75
2022/02/27 06:29:04;;;;;;;9.10;6.07;;;6.30;99.90;;;;;;5012822;28;20475;-74
2022/02/27 06:31:30;;;;;;;8.25;6.25;;;6.30;99.90;;;;;;5029326;28;20037;-75
2022/02/27 06:34:15;;;;;;;7.75;5.75;;;6.30;99.90;;;;;;5031002;28;20028;-76
2022/02/27 06:36:46;;;;;;;7.72;4.97;;;6.30;99.90;;;;;;5037936;28;20017;-74
2022/02/27 06:39:12;;;;;;;12.88;6.13;;;6.30;99.90;;;;;;5024429;28;20041;-74
2022/02/27 06:41:37;;;;;;;12.40;6.55;;;6.40;99.90;;;;;;5024593;28;20036;-75
2022/02/27 06:44:03;;;;;;;9.88;5.15;;;6.40;99.90;;;;;;5029296;28;20064;-74
2022/02/27 06:46:30;;;;;;;10.30;6.07;;;6.40;99.90;;;;;;5029603;28;20084;-75
2022/02/27 06:48:56;;;;;;;8.55;6.13;;;6.50;99.90;;;;;;5030161;28;20053;-74
2022/02/27 06:51:21;;;;;;;8.80;6.80;;;6.50;99.90;;;;;;5026478;28;20080;-74
2022/02/27 06:53:47;;;;;;;8.60;5.78;;;6.50;99.90;;;;;;5031133;28;20378;-75
2022/02/27 06:56:13;;;;;;;10.48;6.38;;;6.50;99.90;;;;;;5028286;28;20026;-75
2022/02/27 06:58:39;;;;;;;10.25;6.47;;;6.60;99.90;;;;;;5031224;28;20039;-76
2022/02/27 07:01:05;;;;;;;7.35;6.25;;;6.60;99.90;;;;;;5028958;28;20040;-75
2022/02/27 07:03:32;;;;;;;6.78;5.32;;;6.60;99.90;;;;;;5034354;28;20037;-76
2022/02/27 07:05:57;;;;;;;8.35;4.78;;;6.70;99.90;;;;;;5032990;28;20095;-75
2022/02/27 07:08:23;;;;;;;11.35;5.90;;;6.70;99.90;;;;;;5016217;28;20022;-75
2022/02/27 07:10:49;;;;;;;7.63;6.32;;;6.70;99.90;;;;;;5028933;28;20443;-75
2022/02/27 07:13:15;;;;;;;6.70;5.80;;;6.80;99.90;;;;;;5026346;28;20213;-75
2022/02/27 07:15:41;;;;;;;7.60;5.93;;;6.80;99.90;;;;;;5029972;28;20017;-74
2022/02/27 07:18:06;;;;;;;13.52;8.18;;;6.90;99.90;;;;;;5013570;28;20022;-76
2022/02/27 07:20:32;;;;;;;11.77;7.03;;;6.90;99.90;;;;;;5025332;28;20029;-75
2022/02/27 07:22:58;;;;;;;13.75;7.00;;;6.80;99.90;;;;;;5012388;28;20025;-75
2022/02/27 07:25:24;;;;;;;10.55;6.88;;;6.90;99.90;;;;;;5028251;28;20029;-72
2022/02/27 07:27:50;;;;;;;9.23;5.93;;;6.90;99.90;;;;;;5010527;28;20407;-75
2022/02/27 07:30:16;;;;;;;8.30;5.85;;;6.90;99.90;;;;;;5009102;28;20349;-74
2022/02/27 07:32:41;;;;;;;8.43;6.72;;;6.90;99.90;;;;;;5028562;28;20037;-76
2022/02/27 07:35:08;;;;;;;13.18;7.40;;;6.90;99.90;;;;;;5029531;28;20026;-75
2022/02/27 07:37:36;;;;;;;12.57;5.57;;;7.00;99.90;;;;;;5026735;28;20654;-75
2022/02/27 07:40:05;;;;;;;15.80;7.05;;;7.00;99.90;;;;;;5009425;28;20116;-74
2022/02/27 07:42:31;;;;;;;13.68;7.55;;;7.10;99.90;;;;;;5024936;28;20021;-74
2022/02/27 07:44:57;;;;;;;11.90;6.30;;;7.10;99.90;;;;;;5028464;28;20028;-74
2022/02/27 07:47:23;;;;;;;8.27;6.10;;;7.10;99.90;;;;;;5032551;28;20021;-75
2022/02/27 07:49:49;;;;;;;11.75;7.35;;;7.10;99.90;;;;;;5027201;28;20029;-76
2022/02/27 07:52:15;;;;;;;14.65;7.45;;;7.10;99.90;;;;;;5009819;28;20038;-74
2022/02/27 07:54:44;;;;;;;10.30;7.13;;;7.20;99.90;;;;;;5004462;28;20048;-75
2022/02/27 07:57:09;;;;;;;10.45;6.55;;;7.20;99.90;;;;;;5026263;28;20104;-74
2022/02/27 07:59:35;;;;;;;10.82;6.68;;;7.30;99.90;;;;;;5011430;28;20136;-76
2022/02/27 08:02:01;;;;;;;13.05;7.35;;;7.30;99.90;;;;;;5024891;28;20036;-74
2022/02/27 08:04:27;;;;;;;9.93;7.22;;;7.30;99.90;;;;;;5028896;28;20039;-74
2022/02/27 08:06:53;;;;;;;7.22;5.95;;;7.40;99.90;;;;;;5025135;28;20057;-74
2022/02/27 08:09:19;;;;;;;9.90;6.03;;;7.40;99.90;;;;;;5026900;28;20074;-74
2022/02/27 08:11:44;;;;;;;7.03;6.32;;;7.50;99.90;;;;;;5029194;28;20092;-74
2022/02/27 08:14:10;;;;;;;14.85;7.78;;;7.40;99.90;;;;;;5030688;28;20394;-75
2022/02/27 08:16:36;;;;;;;10.73;5.88;;;7.40;99.90;;;;;;5029701;28;20021;-76
2022/02/27 08:19:02;;;;;;;13.10;7.25;;;7.30;99.90;;;;;;5025095;28;20022;-75
2022/02/27 08:21:28;;;;;;;6.82;6.00;;;7.20;99.90;;;;;;5010240;28;20108;-76
2022/02/27 08:23:56;;;;;;;13.48;7.45;;;7.30;99.90;;;;;;5027235;28;20132;-76
2022/02/27 08:26:22;;;;;;;20.00;7.72;;;7.30;99.90;;;;;;5022031;28;20036;-76
2022/02/27 08:28:48;;;;;;;12.25;6.75;;;7.30;99.90;;;;;;5021074;28;20029;-75
2022/02/27 08:31:13;;;;;;;14.30;7.65;;;7.30;99.90;;;;;;5008048;28;20100;-69
2022/02/27 08:33:39;;;;;;;14.18;7.35;;;7.40;99.90;;;;;;5026422;28;20075;-70
2022/02/27 08:36:05;;;;;;;32.35;7.63;;;7.50;99.90;;;;;;5022423;28;20021;-67
2022/02/27 08:38:31;;;;;;;10.60;6.25;;;7.50;99.90;;;;;;5029258;28;20033;-66
2022/02/27 08:40:57;;;;;;;8.77;6.93;;;7.50;99.90;;;;;;5007102;28;20034;-66
2022/02/27 08:43:23;;;;;;;21.63;7.80;;;7.60;99.90;;;;;;5024878;28;20387;-68
2022/02/27 08:45:49;;;;;;;13.65;6.60;;;7.50;99.90;;;;;;5025545;28;20054;-67
2022/02/27 08:48:15;;;;;;;10.07;5.80;;;7.60;99.90;;;;;;5011757;28;20037;-67
2022/02/27 08:50:40;;;;;;;6.82;6.05;;;7.50;99.90;;;;;;5025716;28;20072;-67
2022/02/27 08:53:06;;;;;;;11.95;6.60;;;7.60;99.90;;;;;;5010387;28;20514;-67
2022/02/27 08:55:32;;;;;;;15.75;7.57;;;7.50;99.90;;;;;;5004837;28;20018;-66
2022/02/27 08:57:58;;;;;;;10.20;6.15;;;7.50;99.90;;;;;;5028193;28;20071;-67
2022/02/27 09:00:24;;;;;;;8.68;6.03;;;7.60;99.90;;;;;;5025915;28;20373;-67
2022/02/27 09:02:50;;;;;;;12.55;5.70;;;7.60;99.90;;;;;;5027082;28;20174;-66
2022/02/27 09:05:16;;;;;;;9.07;5.43;;;7.60;99.90;;;;;;5006922;28;20034;-68
2022/02/27 09:07:42;;;;;;;7.15;5.07;;;7.60;99.90;;;;;;5028123;28;20025;-67
2022/02/27 09:10:12;;;;;;;8.98;5.60;;;7.80;99.90;;;;;;5023708;28;20079;-66
2022/02/27 09:12:40;;;;;;;8.82;5.65;;;7.80;99.90;;;;;;5023003;28;20018;-67
2022/02/27 09:15:07;;;;;;;16.20;5.88;;;7.80;99.90;;;;;;5020599;28;20169;-66
2022/02/27 09:17:32;;;;;;;12.18;7.43;;;8.00;99.90;;;;;;5028430;28;20100;-67
2022/02/27 09:19:58;;;;;;;7.65;6.28;;;8.20;99.90;;;;;;5010202;28;20152;-68
2022/02/27 09:22:24;;;;;;;10.70;6.95;;;8.10;99.90;;;;;;5027915;28;20031;-67
2022/02/27 09:24:49;;;;;;;9.40;6.50;;;8.10;99.90;;;;;;5005201;28;20033;-65
2022/02/27 09:27:15;;;;;;;8.35;6.43;;;7.90;99.90;;;;;;5007388;28;20120;-66
2022/02/27 09:29:41;;;;;;;8.13;5.35;;;7.90;99.90;;;;;;5024248;28;20025;-67
2022/02/27 09:32:07;;;;;;;10.05;6.00;;;7.90;99.90;;;;;;5028179;28;20026;-67
2022/02/27 09:34:33;;;;;;;8.00;6.03;;;7.90;99.90;;;;;;5027310;28;20101;-66
2022/02/27 09:36:59;;;;;;;7.68;5.80;;;7.90;99.90;;;;;;5022951;28;20022;-72
2022/02/27 09:39:27;;;;;;;9.88;6.13;;;7.90;99.90;;;;;;5029514;28;20079;-69
2022/02/27 09:41:54;;;;;;;9.35;5.85;;;7.90;99.90;;;;;;5025900;28;20048;-65
2022/02/27 09:44:20;;;;;;;11.55;6.40;;;7.90;99.90;;;;;;5027809;28;20022;-71
2022/02/27 09:46:49;;;;;;;11.48;7.15;;;8.00;99.90;;;;;;5011008;28;20057;-67
2022/02/27 09:49:15;;;;;;;8.65;6.68;;;8.00;99.90;;;;;;5027301;28;20138;-66
2022/02/27 09:51:41;;;;;;;7.30;6.15;;;8.10;99.90;;;;;;5006523;28;20079;-65
2022/02/27 09:54:09;;;;;;;10.45;6.63;;;8.20;99.90;;;;;;5030112;28;20025;-66
2022/02/27 09:56:35;;;;;;;7.00;5.47;;;8.40;99.90;;;;;;5012179;28;20079;-67
2022/02/27 09:59:01;;;;;;;7.10;5.25;;;8.30;99.90;;;;;;5027364;28;20550;-66
2022/02/27 10:01:27;;;;;;;7.45;5.72;;;8.30;99.90;;;;;;5009604;28;20108;-66
2022/02/27 10:03:53;;;;;;;9.63;6.65;;;8.30;99.90;;;;;;5030383;28;20057;-66
2022/02/27 10:06:19;;;;;;;13.10;7.05;;;8.30;99.90;;;;;;5010522;28;20032;-66
2022/02/27 10:08:54;;;;;;;9.73;6.00;;;8.50;99.90;;;;;;5030108;28;20025;-64
2022/02/27 10:11:23;;;;;;;11.60;7.55;;;8.70;99.90;;;;;;5025578;28;20440;-67
2022/02/27 10:13:52;;;;;;;7.53;5.30;;;8.70;99.90;;;;;;5029701;28;20438;-67
2022/02/27 10:16:20;;;;;;;13.57;7.25;;;8.60;99.90;;;;;;5012892;28;20017;-66
2022/02/27 10:18:48;;;;;;;7.82;5.55;;;8.50;99.90;;;;;;5024640;28;20527;-66
2022/02/27 10:21:36;;;;;;;7.78;5.28;;;8.60;99.90;;;;;;5026991;28;20060;-66
2022/02/27 10:24:08;;;;;;;10.98;5.38;;;8.60;99.90;;;;;;5025229;28;20026;-66
2022/02/27 10:26:38;;;;;;;9.32;6.03;;;8.60;99.90;;;;;;5025532;28;20123;-67
2022/02/27 10:29:14;;;;;;;10.88;7.10;;;8.70;99.90;;;;;;5026309;28;20033;-66
2022/02/27 10:31:47;;;;;;;11.85;6.43;;;8.80;99.90;;;;;;5026881;28;20037;-66
2022/02/27 10:34:14;;;;;;;8.48;5.85;;;8.90;99.90;;;;;;5023332;28;20033;-66
2022/02/27 10:36:59;;;;;;;7.40;6.05;;;9.00;99.90;;;;;;5024813;28;20053;-67
2022/02/27 10:39:45;;;;;;;7.63;5.50;;;8.90;99.90;;;;;;5026167;28;20045;-66
2022/02/27 10:42:11;;;;;;;11.38;5.97;;;8.80;99.90;;;;;;5026168;28;20032;-67
2022/02/27 10:44:38;;;;;;;9.50;5.38;;;8.80;99.90;;;;;;5028840;28;20383;-67
2022/02/27 10:47:13;;;;;;;14.15;6.15;;;9.00;99.90;;;;;;5027886;28;20047;-67
2022/02/27 10:49:39;;;;;;;10.10;6.70;;;9.00;99.90;;;;;;5022721;28;20045;-66
2022/02/27 10:52:43;;;;;;;11.02;5.70;;;9.00;99.90;;;;;;5021666;28;20040;-66
2022/02/27 10:55:09;;;;;;;10.48;7.07;;;8.90;99.90;;;;;;5022936;28;20119;-65
2022/02/27 10:57:44;;;;;;;8.70;5.38;;;9.10;99.90;;;;;;5026852;28;20160;-68
2022/02/27 11:00:30;;;;;;;9.52;6.78;;;9.20;99.90;;;;;;5029819;28;20021;-66
2022/02/27 11:03:04;;;;;;;6.13;5.45;;;9.10;99.90;;;;;;5026021;28;20123;-69
2022/02/27 11:05:35;;;;;;;14.82;6.38;;;9.00;99.90;;;;;;5026722;28;20363;-67
2022/02/27 11:08:07;;;;;;;6.53;5.55;;;9.00;99.90;;;;;;5033441;28;20074;-68
2022/02/27 11:10:37;;;;;;;11.15;6.85;;;9.00;99.90;;;;;;5026183;28;20022;-69
2022/02/27 11:13:09;;;;;;;6.57;5.75;;;9.10;99.90;;;;;;5027082;28;20061;-68
2022/02/27 11:15:36;;;;;;;8.75;6.13;;;9.10;99.90;;;;;;5030043;28;20475;-68
2022/02/27 11:18:04;;;;;;;9.35;6.03;;;9.10;99.90;;;;;;5029747;28;20033;-68
2022/02/27 11:20:29;;;;;;;11.45;5.03;;;9.10;99.90;;;;;;5027421;28;20439;-68
2022/02/27 11:22:56;;;;;;;9.85;5.45;;;9.10;99.90;;;;;;5030265;28;20112;-70
2022/02/27 11:25:24;;;;;;;11.32;6.45;;;9.20;99.90;;;;;;5026802;28;20033;-68
2022/02/27 11:27:55;;;;;;;20.80;7.53;;;9.20;99.90;;;;;;5028035;28;20021;-68
2022/02/27 11:30:28;;;;;;;5.60;5.03;;;9.30;99.90;;;;;;5026401;28;20033;-67
2022/02/27 11:32:57;;;;;;;7.63;6.00;;;9.10;99.90;;;;;;5031952;28;20294;-69
2022/02/27 11:35:44;;;;;;;8.75;6.60;;;9.10;99.90;;;;;;5026303;28;20032;-68
2022/02/27 11:38:32;;;;;;;10.73;5.25;;;9.20;99.90;;;;;;5030680;28;20024;-67
2022/02/27 11:41:10;;;;;;;6.72;5.35;;;9.40;99.90;;;;;;5024560;28;20033;-67
2022/02/27 11:43:57;;;;;;;8.32;6.18;;;9.30;99.90;;;;;;5023301;28;20029;-68
2022/02/27 11:46:36;;;;;;;8.73;6.70;;;9.30;99.90;;;;;;5029754;28;20506;-66
2022/02/27 11:49:20;;;;;;;6.50;5.63;;;9.30;99.90;;;;;;5029151;28;20033;-67
2022/02/27 11:52:06;;;;;;;7.97;5.70;;;9.30;99.90;;;;;;5031050;28;20032;-69
2022/02/27 11:54:50;;;;;;;9.40;6.10;;;9.40;99.90;;;;;;5029647;28;20032;-67
2022/02/27 11:57:18;;;;;;;6.18;5.53;;;9.40;99.90;;;;;;5013365;28;20033;-68
2022/02/27 11:59:55;;;;;;;10.68;5.88;;;9.50;99.90;;;;;;5027742;28;20025;-69
2022/02/27 12:02:30;;;;;;;11.70;6.43;;;9.40;99.90;;;;;;5010615;28;20041;-67
2022/02/27 12:04:58;;;;;;;7.75;4.65;;;9.70;99.90;;;;;;5028418;28;20021;-65
2022/02/27 12:07:26;;;;;;;12.77;6.97;;;9.60;99.90;;;;;;5008696;28;20468;-68
2022/02/27 12:09:51;;;;;;;7.70;5.40;;;9.70;99.90;;;;;;5028515;28;20018;-68
2022/02/27 12:12:38;;;;;;;13.73;5.75;;;9.60;99.90;;;;;;5024679;28;20112;-67
2022/02/27 12:15:25;;;;;;;8.90;6.70;;;9.60;99.90;;;;;;5025878;28;20033;-66
2022/02/27 12:18:03;;;;;;;9.57;6.05;;;9.80;99.90;;;;;;5003324;28;20036;-67
2022/02/27 12:20:50;;;;;;;8.32;5.70;;;9.80;99.90;;;;;;5021477;28;20021;-67
2022/02/27 12:23:28;;;;;;;7.40;6.70;;;9.90;99.90;;;;;;5026480;28;20325;-69
2022/02/27 12:25:59;;;;;;;6.70;5.70;;;9.80;99.90;;;;;;5017276;28;20360;-68
2022/02/27 12:28:52;;;;;;;9.05;5.93;;;9.90;99.90;;;;;;5028248;28;20034;-69
2022/02/27 12:31:32;;;;;;;10.50;6.35;;;9.90;99.90;;;;;;5027849;28;20025;-68
2022/02/27 12:34:07;;;;;;;9.85;5.90;;;9.90;99.90;;;;;;5025239;28;20024;-68
2022/02/27 12:36:36;;;;;;;7.85;5.60;;;10.00;99.90;;;;;;5023459;28;20064;-67
2022/02/27 12:39:11;;;;;;;8.18;5.32;;;10.10;99.90;;;;;;5027881;28;20365;-67
2022/02/27 12:41:39;;;;;;;11.32;6.95;;;10.20;99.90;;;;;;5027310;28;20029;-68
2022/02/27 12:44:08;;;;;;;12.43;6.70;;;10.30;99.90;;;;;;5024272;28;20100;-66
2022/02/27 12:46:34;;;;;;;5.75;4.82;;;10.30;99.90;;;;;;5029920;28;20025;-67
2022/02/27 12:51:45;;;;;;;10.05;5.68;;;10.00;99.90;;;;;;5025782;28;20039;-68
2022/02/27 12:54:11;;;;;;;8.10;6.05;;;10.00;99.90;;;;;;5023584;28;20113;-67
2022/02/27 12:56:38;;;;;;;7.82;5.53;;;10.00;99.90;;;;;;5027716;28;20024;-66
2022/02/27 12:59:04;;;;;;;9.40;5.55;;;10.00;99.90;;;;;;5015141;28;20049;-67
2022/02/27 13:01:32;;;;;;;9.05;5.80;;;9.90;99.90;;;;;;5029338;28;20101;-67